createdAt,value
2018-04-19T00:04:38.953Z,17.09
2018-04-19T00:07:08.304Z,17.02
2018-04-19T00:09:37.618Z,16.99
2018-04-19T00:12:06.995Z,16.92
2018-04-19T00:14:36.332Z,16.88
2018-04-19T00:17:05.653Z,16.75
2018-04-19T00:19:35.767Z,16.70
2018-04-19T00:22:05.851Z,16.64
2018-04-19T00:24:35.192Z,16.63
2018-04-19T00:27:05.471Z,16.58
2018-04-19T00:29:34.823Z,16.57
2018-04-19T00:32:04.934Z,16.50
2018-04-19T00:34:34.243Z,16.47
2018-04-19T00:37:04.375Z,16.44
2018-04-19T00:39:34.447Z,16.42
2018-04-19T00:42:03.842Z,16.39
2018-04-19T00:44:33.154Z,16.40
2018-04-19T00:47:02.492Z,16.30
2018-04-19T00:49:31.834Z,16.19
2018-04-19T00:52:01.176Z,16.15
2018-04-19T00:54:30.495Z,16.15
2018-04-19T00:57:00.606Z,16.10
2018-04-19T00:59:29.932Z,16.06
2018-04-19T01:02:00.017Z,16.08
2018-04-19T01:04:29.368Z,16.07
2018-04-19T01:06:58.689Z,16.02
2018-04-19T01:09:28.006Z,15.99
2018-04-19T01:11:57.355Z,16.00
2018-04-19T01:14:27.476Z,15.93
2018-04-19T01:16:57.567Z,15.92
2018-04-19T01:19:26.895Z,15.97
2018-04-19T01:21:56.995Z,15.91
2018-04-19T01:24:26.351Z,15.91
2018-04-19T01:26:55.665Z,15.86
2018-04-19T01:29:24.986Z,15.79
2018-04-19T01:31:54.320Z,15.72
2018-04-19T01:34:23.642Z,15.69
2018-04-19T01:36:53.750Z,15.67
2018-04-19T01:39:23.074Z,15.57
2018-04-19T01:41:53.168Z,15.51
2018-04-19T01:44:22.498Z,15.53
2018-04-19T01:46:51.819Z,15.48
2018-04-19T01:49:21.170Z,15.42
2018-04-19T01:51:50.497Z,15.40
2018-04-19T01:54:20.622Z,15.33
2018-04-19T01:56:50.703Z,15.31
2018-04-19T01:59:20.022Z,15.32
2018-04-19T02:01:49.372Z,15.31
2018-04-19T02:04:19.463Z,15.28
2018-04-19T02:06:49.600Z,15.29
2018-04-19T02:09:18.907Z,15.27
2018-04-19T02:11:48.284Z,15.18
2018-04-19T02:14:18.367Z,15.15
2018-04-19T02:16:47.704Z,15.10
2018-04-19T02:19:17.822Z,15.06
2018-04-19T02:21:47.919Z,15.07
2018-04-19T02:24:17.251Z,15.11
2018-04-19T02:26:46.574Z,15.15
2018-04-19T02:29:15.912Z,15.15
2018-04-19T02:31:45.270Z,15.04
2018-04-19T02:34:14.886Z,15.08
2018-04-19T02:36:44.224Z,15.04
2018-04-19T02:39:13.566Z,15.04
2018-04-19T02:41:42.893Z,15.13
2018-04-19T02:44:12.974Z,15.06
2018-04-19T02:46:42.301Z,15.08
2018-04-19T02:49:12.381Z,15.05
2018-04-19T02:51:41.718Z,15.11
2018-04-19T02:54:11.037Z,15.01
2018-04-19T02:56:40.371Z,15.01
2018-04-19T02:59:09.692Z,14.99
2018-04-19T03:01:39.016Z,14.92
2018-04-19T03:04:08.323Z,14.85
2018-04-19T03:06:37.666Z,14.94
2018-04-19T03:09:07.022Z,14.89
2018-04-19T03:11:36.331Z,14.87
2018-04-19T03:14:05.707Z,14.88
2018-04-19T03:16:35.064Z,14.95
2018-04-19T03:19:05.152Z,15.00
2018-04-19T03:21:34.479Z,14.95
2018-04-19T03:24:04.555Z,14.94
2018-04-19T03:26:33.867Z,14.90
2018-04-19T03:29:03.220Z,14.91
2018-04-19T03:31:32.530Z,14.86
2018-04-19T03:34:01.899Z,14.81
2018-04-19T03:36:31.993Z,14.81
2018-04-19T03:39:01.358Z,14.73
2018-04-19T03:41:30.663Z,14.70
2018-04-19T03:44:00.012Z,14.65
2018-04-19T03:46:29.363Z,14.66
2018-04-19T03:48:58.669Z,14.64
2018-04-19T03:51:28.027Z,14.62
2018-04-19T03:53:57.359Z,14.57
2018-04-19T03:56:26.699Z,14.64
2018-04-19T03:58:56.050Z,14.58
2018-04-19T04:01:26.129Z,14.60
2018-04-19T04:03:55.464Z,14.54
2018-04-19T04:06:24.784Z,14.53
2018-04-19T04:08:54.917Z,14.40
2018-04-19T04:11:24.983Z,14.34
2018-04-19T04:13:54.261Z,14.41
2018-04-19T04:16:41.277Z,14.48
2018-04-19T04:19:28.423Z,14.54
2018-04-19T04:22:15.723Z,14.69
2018-04-19T04:24:46.020Z,14.87
2018-04-19T04:27:16.213Z,15.07
2018-04-19T04:29:45.531Z,15.24
2018-04-19T04:32:15.663Z,15.27
2018-04-19T04:34:45.826Z,15.31
2018-04-19T04:37:15.156Z,15.33
2018-04-19T04:39:44.497Z,15.39
2018-04-19T04:42:14.597Z,15.37
2018-04-19T04:44:43.932Z,15.30
2018-04-19T04:47:13.258Z,15.25
2018-04-19T04:49:42.579Z,15.20
2018-04-19T04:52:11.924Z,15.07
2018-04-19T04:54:41.994Z,14.97
2018-04-19T04:57:11.330Z,14.89
2018-04-19T04:59:41.458Z,14.89
2018-04-19T05:02:10.759Z,14.87
2018-04-19T05:04:40.883Z,14.79
2018-04-19T05:07:10.979Z,14.80
2018-04-19T05:09:40.304Z,14.77
2018-04-19T05:12:10.386Z,14.80
2018-04-19T05:14:39.716Z,14.88
2018-04-19T05:17:09.049Z,14.96
2018-04-19T05:19:38.384Z,14.99
2018-04-19T05:22:07.691Z,15.08
2018-04-19T05:24:36.995Z,15.16
2018-04-19T05:27:06.349Z,15.28
2018-04-19T05:29:36.428Z,15.34
2018-04-19T05:32:05.746Z,15.36
2018-04-19T05:34:35.069Z,15.39
2018-04-19T05:37:05.182Z,15.36
2018-04-19T05:39:34.494Z,15.48
2018-04-19T05:42:04.585Z,15.47
2018-04-19T05:44:33.904Z,15.52
2018-04-19T05:47:03.998Z,15.65
2018-04-19T05:49:33.315Z,15.58
2018-04-19T05:52:02.643Z,15.63
2018-04-19T05:54:32.712Z,15.66
2018-04-19T05:57:02.044Z,15.78
2018-04-19T05:59:31.343Z,15.86
2018-04-19T06:02:00.675Z,15.87
2018-04-19T06:04:30.750Z,16.01
2018-04-19T06:07:00.110Z,16.08
2018-04-19T06:09:29.419Z,16.23
2018-04-19T06:11:58.726Z,16.36
2018-04-19T06:14:28.077Z,16.46
2018-04-19T06:16:57.411Z,16.60
2018-04-19T06:19:26.770Z,16.76
2018-04-19T06:21:56.077Z,16.90
2018-04-19T06:24:25.392Z,17.04
2018-04-19T06:26:54.718Z,17.20
2018-04-19T06:29:24.866Z,17.37
2018-04-19T06:31:54.932Z,17.49
2018-04-19T06:34:24.295Z,17.61
2018-04-19T06:36:53.599Z,17.70
2018-04-19T06:39:22.949Z,17.83
2018-04-19T06:41:52.265Z,17.98
2018-04-19T06:44:22.361Z,18.17
2018-04-19T06:46:51.690Z,18.33
2018-04-19T06:49:21.771Z,18.51
2018-04-19T06:51:51.100Z,18.66
2018-04-19T06:54:20.425Z,18.81
2018-04-19T06:56:49.748Z,19.00
2018-04-19T06:59:19.070Z,19.19
2018-04-19T07:01:48.392Z,19.33
2018-04-19T07:04:17.718Z,19.60
2018-04-19T07:06:47.794Z,19.88
2018-04-19T07:09:17.142Z,20.14
2018-04-19T07:11:47.228Z,20.33
2018-04-19T07:14:16.573Z,20.49
2018-04-19T07:16:46.689Z,20.75
2018-04-19T07:19:16.778Z,20.92
2018-04-19T07:21:46.094Z,21.19
2018-04-19T07:24:15.407Z,21.37
2018-04-19T07:26:45.492Z,21.54
2018-04-19T07:29:14.806Z,21.84
2018-04-19T07:31:44.124Z,22.10
2018-04-19T07:34:13.459Z,22.38
2018-04-19T07:36:43.545Z,22.62
2018-04-19T07:39:12.846Z,22.97
2018-04-19T07:41:42.226Z,23.32
2018-04-19T07:44:11.570Z,23.46
2018-04-19T07:46:41.664Z,23.69
2018-04-19T07:49:10.986Z,23.91
2018-04-19T07:51:40.304Z,24.22
2018-04-19T07:54:10.383Z,24.48
2018-04-19T07:56:39.699Z,24.68
2018-04-19T07:59:09.010Z,24.93
2018-04-19T08:01:38.331Z,24.97
2018-04-19T08:04:08.427Z,25.24
2018-04-19T08:06:37.730Z,25.44
2018-04-19T08:09:08.772Z,25.71
2018-04-19T08:11:38.084Z,25.86
2018-04-19T08:14:07.391Z,26.03
2018-04-19T08:16:37.501Z,25.95
2018-04-19T08:19:06.820Z,26.15
2018-04-19T08:21:36.886Z,26.22
2018-04-19T08:24:06.975Z,26.40
2018-04-19T08:26:36.280Z,26.29
2018-04-19T08:29:05.587Z,26.22
2018-04-19T08:31:34.916Z,26.47
2018-04-19T08:34:04.220Z,26.60
2018-04-19T08:36:33.554Z,26.81
2018-04-19T08:39:02.880Z,26.74
2018-04-19T08:41:32.966Z,26.87
2018-04-19T08:44:02.312Z,27.17
2018-04-19T08:46:32.413Z,27.41
2018-04-19T08:49:01.740Z,27.57
2018-04-19T08:51:31.051Z,27.89
2018-04-19T08:54:00.377Z,28.02
2018-04-19T08:56:29.693Z,28.06
2018-04-19T08:58:59.013Z,27.85
2018-04-19T09:01:28.337Z,27.66
2018-04-19T09:03:58.471Z,28.05
2018-04-19T09:06:27.746Z,28.20
2018-04-19T09:08:57.050Z,28.32
2018-04-19T09:11:26.418Z,28.53
2018-04-19T09:13:55.731Z,28.36
2018-04-19T09:16:25.054Z,28.70
2018-04-19T09:18:54.370Z,29.16
2018-04-19T09:21:24.438Z,29.32
2018-04-19T09:23:53.763Z,29.33
2018-04-19T09:26:23.095Z,29.50
2018-04-19T09:28:53.182Z,28.93
2018-04-19T09:31:22.491Z,29.13
2018-04-19T09:33:51.835Z,29.30
2018-04-19T09:36:21.902Z,29.29
2018-04-19T09:38:51.208Z,29.70
2018-04-19T09:41:20.525Z,29.92
2018-04-19T09:43:49.859Z,29.76
2018-04-19T09:46:19.962Z,29.60
2018-04-19T09:48:49.275Z,29.68
2018-04-19T09:51:27.128Z,29.99
2018-04-19T09:53:56.450Z,29.97
2018-04-19T09:56:25.755Z,30.09
2018-04-19T09:59:11.057Z,30.52
2018-04-19T10:01:46.733Z,30.78
2018-04-19T10:04:16.043Z,30.52
2018-04-19T10:06:45.350Z,30.68
2018-04-19T10:09:14.701Z,30.75
2018-04-19T10:11:44.014Z,31.21
2018-04-19T10:14:13.311Z,31.38
2018-04-19T10:16:42.639Z,31.96
2018-04-19T10:19:11.958Z,32.36
2018-04-19T10:21:41.259Z,31.88
2018-04-19T10:24:10.579Z,32.27
2018-04-19T10:26:39.917Z,32.30
2018-04-19T10:29:09.258Z,31.79
2018-04-19T10:31:38.568Z,31.65
2018-04-19T10:34:07.863Z,31.57
2018-04-19T10:36:37.187Z,31.52
2018-04-19T10:39:06.492Z,31.80
2018-04-19T10:41:35.789Z,32.03
2018-04-19T10:44:06.454Z,32.45
2018-04-19T10:46:35.775Z,32.63
2018-04-19T10:49:05.113Z,32.53
2018-04-19T10:51:34.422Z,32.25
2018-04-19T10:54:03.801Z,32.10
2018-04-19T10:56:33.080Z,31.64
2018-04-19T10:59:02.434Z,31.54
2018-04-19T11:01:31.740Z,31.43
2018-04-19T11:04:01.059Z,31.35
2018-04-19T11:06:30.408Z,31.23
2018-04-19T11:09:00.481Z,31.27
2018-04-19T11:11:29.806Z,31.52
2018-04-19T11:13:59.115Z,31.66
2018-04-19T11:16:28.441Z,31.94
2018-04-19T11:18:58.667Z,32.36
2018-04-19T11:21:28.758Z,32.34
2018-04-19T11:23:58.086Z,32.74
2018-04-19T11:26:28.178Z,32.98
2018-04-19T11:28:57.487Z,32.86
2018-04-19T11:31:26.808Z,33.19
2018-04-19T11:33:56.921Z,32.97
2018-04-19T11:36:26.247Z,32.75
2018-04-19T11:38:56.315Z,33.04
2018-04-19T11:41:25.632Z,33.38
2018-04-19T11:43:54.950Z,33.10
2018-04-19T11:46:24.284Z,33.21
2018-04-19T11:48:53.622Z,33.05
2018-04-19T11:51:22.922Z,33.37
2018-04-19T11:53:52.222Z,33.31
2018-04-19T11:56:21.667Z,33.23
2018-04-19T11:58:50.976Z,33.13
2018-04-19T12:01:21.043Z,33.28
2018-04-19T12:03:50.371Z,33.85
2018-04-19T12:06:19.697Z,33.61
2018-04-19T12:08:49.766Z,33.70
2018-04-19T12:11:19.099Z,33.63
2018-04-19T12:13:48.403Z,33.63
2018-04-19T12:16:17.715Z,33.71
2018-04-19T12:18:47.022Z,33.67
2018-04-19T12:21:16.327Z,33.84
2018-04-19T12:23:46.414Z,33.83
2018-04-19T12:26:15.738Z,33.27
2018-04-19T12:28:45.051Z,32.95
2018-04-19T12:31:15.134Z,33.17
2018-04-19T12:33:44.444Z,33.53
2018-04-19T12:36:13.788Z,33.56
2018-04-19T12:38:43.869Z,33.56
2018-04-19T12:41:13.200Z,34.03
2018-04-19T12:43:43.289Z,34.17
2018-04-19T12:46:12.600Z,34.41
2018-04-19T12:48:41.933Z,34.93
2018-04-19T12:51:12.010Z,34.62
2018-04-19T12:53:41.351Z,34.07
2018-04-19T12:56:11.432Z,33.68
2018-04-19T12:58:40.745Z,33.14
2018-04-19T13:01:10.079Z,33.15
2018-04-19T13:03:40.161Z,33.32
2018-04-19T13:06:09.483Z,33.37
2018-04-19T13:08:38.815Z,33.47
2018-04-19T13:11:08.873Z,33.43
2018-04-19T13:13:38.201Z,32.94
2018-04-19T13:16:07.547Z,33.14
2018-04-19T13:18:37.629Z,33.21
2018-04-19T13:21:06.942Z,33.37
2018-04-19T13:23:36.298Z,33.24
2018-04-19T13:26:05.594Z,33.40
2018-04-19T13:28:34.921Z,33.64
2018-04-19T13:31:04.235Z,33.56
2018-04-19T13:33:33.560Z,33.34
2018-04-19T13:36:03.663Z,33.18
2018-04-19T13:38:32.966Z,33.02
2018-04-19T13:41:02.304Z,33.19
2018-04-19T13:43:32.371Z,33.18
2018-04-19T13:46:01.700Z,33.45
2018-04-19T13:48:31.022Z,33.37
2018-04-19T13:51:01.121Z,33.64
2018-04-19T13:53:30.429Z,33.57
2018-04-19T13:55:59.740Z,33.28
2018-04-19T13:58:29.057Z,33.26
2018-04-19T14:00:59.150Z,33.25
2018-04-19T14:03:28.452Z,33.59
2018-04-19T14:05:57.783Z,33.79
2018-04-19T14:08:27.118Z,33.39
2018-04-19T14:10:56.451Z,33.60
2018-04-19T14:13:25.807Z,33.88
2018-04-19T14:15:55.144Z,33.64
2018-04-19T14:18:24.459Z,33.51
2018-04-19T14:20:53.816Z,33.12
2018-04-19T14:23:23.873Z,33.17
2018-04-19T14:25:53.170Z,33.10
2018-04-19T14:28:22.512Z,33.23
2018-04-19T14:30:52.602Z,33.21
2018-04-19T14:33:21.931Z,33.44
2018-04-19T14:35:51.998Z,33.49
2018-04-19T14:38:21.318Z,33.54
2018-04-19T14:40:50.614Z,33.49
2018-04-19T14:43:19.958Z,33.04
2018-04-19T14:45:49.254Z,32.77
2018-04-19T14:48:18.583Z,32.85
2018-04-19T14:50:47.890Z,33.40
2018-04-19T14:53:17.207Z,33.78
2018-04-19T14:55:46.539Z,34.09
2018-04-19T14:58:15.843Z,33.73
2018-04-19T15:00:45.203Z,33.69
2018-04-19T15:03:14.489Z,33.72
2018-04-19T15:05:44.571Z,33.19
2018-04-19T15:08:13.872Z,32.88
2018-04-19T15:10:43.190Z,32.89
2018-04-19T15:13:12.486Z,32.97
2018-04-19T15:15:41.801Z,33.00
2018-04-19T15:18:11.131Z,33.18
2018-04-19T15:20:40.436Z,32.90
2018-04-19T15:23:09.776Z,32.95
2018-04-19T15:25:39.069Z,32.74
2018-04-19T15:28:08.368Z,32.86
2018-04-19T15:30:37.698Z,32.49
2018-04-19T15:33:07.028Z,32.24
2018-04-19T15:35:36.346Z,32.03
2018-04-19T15:38:06.451Z,32.18
2018-04-19T15:40:36.529Z,32.31
2018-04-19T15:43:05.831Z,32.05
2018-04-19T15:45:35.143Z,31.90
2018-04-19T15:48:04.462Z,32.06
2018-04-19T15:50:33.764Z,31.87
2018-04-19T15:53:03.090Z,31.71
2018-04-19T15:55:33.150Z,31.60
2018-04-19T15:58:02.475Z,31.77
2018-04-19T16:00:31.775Z,31.73
2018-04-19T16:03:01.107Z,31.78
2018-04-19T16:05:30.424Z,32.00
2018-04-19T16:08:00.512Z,32.10
2018-04-19T16:10:29.841Z,32.13
2018-04-19T16:12:59.922Z,32.21
2018-04-19T16:15:29.249Z,32.29
2018-04-19T16:17:58.572Z,32.27
2018-04-19T16:20:28.651Z,32.22
2018-04-19T16:22:57.955Z,32.27
2018-04-19T16:25:27.307Z,32.07
2018-04-19T16:27:56.625Z,31.71
2018-04-19T16:30:26.742Z,31.72
2018-04-19T16:32:56.078Z,31.66
2018-04-19T16:35:25.384Z,31.48
2018-04-19T16:37:54.732Z,31.26
2018-04-19T16:40:24.807Z,31.13
2018-04-19T16:42:54.126Z,31.04
2018-04-19T16:45:23.465Z,30.93
2018-04-19T16:47:52.766Z,30.85
2018-04-19T16:50:22.065Z,30.74
2018-04-19T16:52:51.391Z,30.60
2018-04-19T16:55:20.698Z,30.40
2018-04-19T16:57:50.027Z,30.39
2018-04-19T17:00:19.367Z,30.26
2018-04-19T17:02:49.446Z,30.21
2018-04-19T17:05:18.786Z,30.10
2018-04-19T17:07:48.878Z,30.04
2018-04-19T17:10:18.195Z,29.95
2018-04-19T17:12:47.498Z,29.79
2018-04-19T17:15:17.617Z,29.71
2018-04-19T17:17:46.937Z,29.67
2018-04-19T17:20:17.018Z,29.56
2018-04-19T17:22:46.348Z,29.47
2018-04-19T17:25:15.670Z,29.30
2018-04-19T17:27:45.775Z,29.21
2018-04-19T17:30:15.099Z,29.11
2018-04-19T17:32:44.402Z,29.01
2018-04-19T17:35:13.742Z,28.92
2018-04-19T17:37:43.068Z,28.78
2018-04-19T17:40:12.374Z,28.62
2018-04-19T17:42:41.711Z,28.55
2018-04-19T17:45:11.027Z,28.40
2018-04-19T17:47:40.339Z,28.33
2018-04-19T17:50:09.659Z,28.22
2018-04-19T17:52:38.994Z,28.10
2018-04-19T17:55:08.307Z,28.01
2018-04-19T17:57:38.400Z,27.91
2018-04-19T18:00:07.726Z,27.79
2018-04-19T18:02:37.807Z,27.66
2018-04-19T18:05:07.106Z,27.60
2018-04-19T18:07:36.445Z,27.47
2018-04-19T18:10:05.760Z,27.34
2018-04-19T18:12:35.850Z,27.19
2018-04-19T18:15:05.193Z,27.00
2018-04-19T18:17:35.283Z,26.87
2018-04-19T18:20:04.615Z,26.75
2018-04-19T18:22:33.954Z,26.65
2018-04-19T18:25:04.039Z,26.59
2018-04-19T18:27:33.386Z,26.48
2018-04-19T18:30:02.693Z,26.32
2018-04-19T18:32:32.012Z,26.19
2018-04-19T18:35:01.345Z,26.03
2018-04-19T18:37:31.421Z,25.85
2018-04-19T18:40:00.761Z,25.67
2018-04-19T18:42:30.839Z,25.62
2018-04-19T18:45:00.172Z,25.49
2018-04-19T18:47:29.488Z,25.43
2018-04-19T18:49:59.591Z,25.33
2018-04-19T18:52:28.901Z,25.23
2018-04-19T18:54:58.993Z,25.12
2018-04-19T18:57:29.095Z,25.02
2018-04-19T18:59:58.440Z,24.92
2018-04-19T19:02:27.747Z,24.81
2018-04-19T19:04:57.050Z,24.65
2018-04-19T19:07:26.413Z,24.51
2018-04-19T19:09:55.720Z,24.43
2018-04-19T19:12:25.041Z,24.35
2018-04-19T19:14:54.364Z,24.22
2018-04-19T19:17:41.494Z,24.00
2018-04-19T19:20:12.909Z,23.87
2018-04-19T19:22:43.013Z,23.71
2018-04-19T19:25:12.316Z,23.55
2018-04-19T19:27:41.638Z,23.44
2018-04-19T19:30:10.967Z,23.32
2018-04-19T19:32:41.058Z,23.22
2018-04-19T19:35:10.380Z,23.16
2018-04-19T19:37:39.700Z,23.09
2018-04-19T19:40:09.789Z,23.03
2018-04-19T19:42:39.116Z,22.99
2018-04-19T19:45:09.191Z,22.93
2018-04-19T19:47:38.520Z,23.02
2018-04-19T19:50:08.609Z,22.95
2018-04-19T19:52:37.953Z,22.95
2018-04-19T19:55:07.255Z,22.85
2018-04-19T19:57:36.575Z,22.81
2018-04-19T20:00:06.661Z,22.76
2018-04-19T20:02:35.972Z,22.74
2018-04-19T20:05:05.309Z,22.66
2018-04-19T20:07:35.379Z,22.67
2018-04-19T20:10:04.684Z,22.65
2018-04-19T20:12:34.013Z,22.58
2018-04-19T20:15:03.322Z,22.58
2018-04-19T20:17:32.665Z,22.56
2018-04-19T20:20:01.980Z,22.55
2018-04-19T20:22:31.282Z,22.48
2018-04-19T20:25:00.625Z,22.50
2018-04-19T20:27:29.930Z,22.46
2018-04-19T20:29:59.316Z,22.43
2018-04-19T20:32:28.574Z,22.41
2018-04-19T20:34:57.887Z,22.46
2018-04-19T20:37:27.215Z,22.47
2018-04-19T20:39:56.522Z,22.45
2018-04-19T20:42:25.853Z,22.47
2018-04-19T20:44:55.937Z,22.39
2018-04-19T20:47:25.228Z,22.25
2018-04-19T20:49:54.564Z,22.25
2018-04-19T20:52:23.872Z,22.15
2018-04-19T20:54:53.218Z,22.12
2018-04-19T20:57:22.530Z,22.16
2018-04-19T20:59:51.851Z,22.13
2018-04-19T21:02:21.167Z,22.08
2018-04-19T21:04:50.488Z,22.08
2018-04-19T21:07:20.609Z,22.07
2018-04-19T21:09:49.911Z,22.00
2018-04-19T21:12:19.240Z,21.96
2018-04-19T21:14:48.561Z,22.00
2018-04-19T21:17:17.898Z,21.95
2018-04-19T21:19:47.195Z,21.90
2018-04-19T21:22:16.533Z,21.88
2018-04-19T21:24:46.622Z,21.77
2018-04-19T21:27:15.930Z,21.73
2018-04-19T21:29:45.230Z,21.72
2018-04-19T21:32:14.594Z,21.70
2018-04-19T21:34:43.906Z,21.51
2018-04-19T21:37:13.212Z,21.47
2018-04-19T21:39:42.530Z,21.37
2018-04-19T21:42:11.835Z,21.30
2018-04-19T21:44:41.940Z,21.23
2018-04-19T21:47:11.230Z,21.18
2018-04-19T21:49:40.542Z,21.17
2018-04-19T21:52:09.859Z,21.10
2018-04-19T21:54:39.171Z,21.09
2018-04-19T21:57:08.497Z,21.11
2018-04-19T21:59:38.572Z,21.11
2018-04-19T22:02:07.890Z,21.09
2018-04-19T22:04:41.798Z,20.97
2018-04-19T22:07:11.150Z,21.02
2018-04-19T22:09:41.254Z,20.97
2018-04-19T22:12:10.559Z,20.99
2018-04-19T22:14:40.662Z,20.99
2018-04-19T22:17:09.968Z,20.96
2018-04-19T22:19:39.280Z,20.97
2018-04-19T22:22:08.604Z,20.95
2018-04-19T22:24:38.686Z,20.81
2018-04-19T22:27:07.991Z,20.75
2018-04-19T22:29:37.318Z,20.65
2018-04-19T22:32:07.413Z,20.71
2018-04-19T22:34:36.726Z,20.69
2018-04-19T22:37:06.048Z,20.69
2018-04-19T22:39:36.183Z,20.62
2018-04-19T22:42:05.448Z,20.60
2018-04-19T22:44:34.792Z,20.66
2018-04-19T22:47:04.107Z,20.63
2018-04-19T22:49:33.424Z,20.55
2018-04-19T22:52:02.734Z,20.48
2018-04-19T22:54:32.051Z,20.46
2018-04-19T22:57:01.393Z,20.32
2018-04-19T22:59:31.469Z,20.32
2018-04-19T23:02:00.807Z,20.23
2018-04-19T23:04:30.899Z,20.25
2018-04-19T23:07:00.233Z,20.28
2018-04-19T23:09:30.310Z,20.17
2018-04-19T23:11:59.639Z,20.17
2018-04-19T23:14:28.979Z,20.13
2018-04-19T23:16:58.299Z,20.14
2018-04-19T23:19:27.607Z,20.08
2018-04-19T23:21:56.929Z,19.98
2018-04-19T23:24:26.246Z,19.88
2018-04-19T23:26:55.558Z,19.86
2018-04-19T23:29:24.882Z,19.84
2018-04-19T23:31:54.186Z,19.77
2018-04-19T23:34:23.498Z,19.75
2018-04-19T23:36:52.816Z,19.75
2018-04-19T23:39:22.133Z,19.72
2018-04-19T23:41:51.453Z,19.61
2018-04-19T23:44:20.777Z,19.61
2018-04-19T23:46:50.871Z,19.55
2018-04-19T23:49:20.172Z,19.50
2018-04-19T23:51:49.470Z,19.49
2018-04-19T23:54:18.803Z,19.43
2018-04-19T23:56:48.876Z,19.37
2018-04-19T23:59:18.216Z,19.36
